createdAt,value
2023-03-07T00:00:17.664Z,0.70
2023-03-07T00:02:44.991Z,0.80
2023-03-07T00:05:14.107Z,0.80
2023-03-07T00:07:41.392Z,0.80
2023-03-07T00:10:09.335Z,0.70
2023-03-07T00:12:36.403Z,0.60
2023-03-07T00:15:04.597Z,0.50
2023-03-07T00:17:31.706Z,0.40
2023-03-07T00:19:58.957Z,0.40
2023-03-07T00:22:26.059Z,0.30
2023-03-07T00:24:53.216Z,0.30
2023-03-07T00:27:20.376Z,0.30
2023-03-07T00:29:48.922Z,0.20
2023-03-07T00:32:16.588Z,0.20
2023-03-07T00:34:43.900Z,0.20
2023-03-07T00:37:11.114Z,0.20
2023-03-07T00:39:38.261Z,0.10
2023-03-07T00:42:05.912Z,0.10
2023-03-07T00:44:33.149Z,0.10
2023-03-07T00:47:00.701Z,0.00
2023-03-07T00:49:28.498Z,0.00
2023-03-07T00:51:55.687Z,0.00
2023-03-07T00:54:22.988Z,0.00
2023-03-07T00:56:50.240Z,0.00
2023-03-07T00:59:18.469Z,0.00
2023-03-07T01:01:45.987Z,0.00
2023-03-07T01:04:13.225Z,0.00
2023-03-07T01:06:40.537Z,0.00
2023-03-07T01:09:09.308Z,0.00
2023-03-07T01:11:37.206Z,0.00
2023-03-07T01:14:06.889Z,0.00
2023-03-07T01:16:38.325Z,0.10
2023-03-07T01:19:08.344Z,0.10
2023-03-07T01:21:38.062Z,0.20
2023-03-07T01:24:06.896Z,0.20
2023-03-07T01:26:35.111Z,0.30
2023-03-07T01:29:05.191Z,0.30
2023-03-07T01:31:35.937Z,0.40
2023-03-07T01:34:04.165Z,0.40
2023-03-07T01:36:35.689Z,0.40
2023-03-07T01:39:10.836Z,0.30
2023-03-07T01:41:42.789Z,0.20
2023-03-07T01:44:29.093Z,0.20
2023-03-07T01:46:58.378Z,0.20
2023-03-07T01:49:46.348Z,0.10
2023-03-07T01:52:20.964Z,0.10
2023-03-07T01:55:03.412Z,0.10
2023-03-07T01:57:35.521Z,0.10
2023-03-07T02:00:09.805Z,0.10
2023-03-07T02:02:46.179Z,0.10
2023-03-07T02:05:27.270Z,0.10
2023-03-07T02:07:57.355Z,0.10
2023-03-07T02:10:28.808Z,0.10
2023-03-07T02:12:56.149Z,0.10
2023-03-07T02:15:23.843Z,0.00
2023-03-07T02:17:52.568Z,-0.10
2023-03-07T02:20:53.687Z,-0.20
2023-03-07T02:23:47.960Z,-0.20
2023-03-07T02:26:24.862Z,-0.20
2023-03-07T02:28:52.686Z,-0.20
2023-03-07T02:31:20.059Z,-0.30
2023-03-07T02:33:47.762Z,-0.30
2023-03-07T02:36:19.031Z,-0.30
2023-03-07T02:38:59.773Z,-0.30
2023-03-07T02:41:32.268Z,-0.30
2023-03-07T02:44:03.113Z,-0.30
2023-03-07T02:46:30.726Z,-0.30
2023-03-07T02:48:57.878Z,-0.30
2023-03-07T02:51:25.460Z,-0.30
2023-03-07T02:53:52.783Z,-0.30
2023-03-07T02:56:20.022Z,-0.40
2023-03-07T02:58:47.110Z,-0.40
2023-03-07T03:01:14.543Z,-0.50
2023-03-07T03:03:41.990Z,-0.50
2023-03-07T03:06:10.322Z,-0.50
2023-03-07T03:08:37.539Z,-0.60
2023-03-07T03:11:04.993Z,-0.60
2023-03-07T03:13:32.353Z,-0.60
2023-03-07T03:15:59.953Z,-0.60
2023-03-07T03:18:31.363Z,-0.60
2023-03-07T03:20:59.879Z,-0.60
2023-03-07T03:23:28.738Z,-0.60
2023-03-07T03:26:01.828Z,-0.50
2023-03-07T03:28:31.923Z,-0.50
2023-03-07T03:31:06.027Z,-0.50
2023-03-07T03:33:36.112Z,-0.40
2023-03-07T03:36:10.517Z,-0.30
2023-03-07T03:38:39.275Z,-0.30
2023-03-07T03:41:11.247Z,-0.30
2023-03-07T03:43:39.546Z,-0.30
2023-03-07T03:46:07.000Z,-0.30
2023-03-07T03:48:34.161Z,-0.40
2023-03-07T03:51:05.057Z,-0.30
2023-03-07T03:53:33.804Z,-0.30
2023-03-07T03:56:03.097Z,-0.20
2023-03-07T03:58:31.211Z,-0.20
2023-03-07T04:00:58.514Z,-0.20
2023-03-07T04:03:25.649Z,-0.20
2023-03-07T04:05:52.836Z,-0.20
2023-03-07T04:08:20.055Z,-0.30
2023-03-07T04:10:47.173Z,-0.30
2023-03-07T04:13:14.451Z,-0.30
2023-03-07T04:15:42.212Z,-0.40
2023-03-07T04:18:09.919Z,-0.40
2023-03-07T04:20:37.083Z,-0.40
2023-03-07T04:23:04.699Z,-0.30
2023-03-07T04:25:32.995Z,-0.40
2023-03-07T04:28:00.252Z,-0.40
2023-03-07T04:30:27.632Z,-0.50
2023-03-07T04:32:54.965Z,-0.50
2023-03-07T04:35:22.729Z,-0.50
2023-03-07T04:37:50.776Z,-0.40
2023-03-07T04:40:18.177Z,-0.40
2023-03-07T04:42:45.445Z,-0.40
2023-03-07T04:45:12.644Z,-0.50
2023-03-07T04:47:39.777Z,-0.50
2023-03-07T04:50:08.555Z,-0.60
2023-03-07T04:52:36.825Z,-0.60
2023-03-07T04:55:05.117Z,-0.50
2023-03-07T04:57:32.454Z,-0.50
2023-03-07T04:59:59.718Z,-0.50
2023-03-07T05:02:27.085Z,-0.40
2023-03-07T05:04:54.624Z,-0.40
2023-03-07T05:07:22.595Z,-0.40
2023-03-07T05:09:50.857Z,-0.40
2023-03-07T05:12:19.030Z,-0.40
2023-03-07T05:14:46.313Z,-0.40
2023-03-07T05:17:13.560Z,-0.40
2023-03-07T05:19:41.020Z,-0.40
2023-03-07T05:22:08.828Z,-0.50
2023-03-07T05:24:36.436Z,-0.50
2023-03-07T05:27:04.058Z,-0.50
2023-03-07T05:29:31.320Z,-0.50
2023-03-07T05:31:59.074Z,-0.50
2023-03-07T05:34:26.718Z,-0.50
2023-03-07T05:36:54.198Z,-0.50
2023-03-07T05:39:21.454Z,-0.50
2023-03-07T05:41:49.376Z,-0.60
2023-03-07T05:44:16.626Z,-0.70
2023-03-07T05:46:43.988Z,-0.70
2023-03-07T05:49:11.273Z,-0.70
2023-03-07T05:51:38.504Z,-0.70
2023-03-07T05:54:05.834Z,-0.70
2023-03-07T05:56:33.407Z,-0.70
2023-03-07T05:59:00.695Z,-0.70
2023-03-07T06:01:28.205Z,-0.70
2023-03-07T06:03:57.315Z,-0.70
2023-03-07T06:06:24.638Z,-0.70
2023-03-07T06:08:51.844Z,-0.60
2023-03-07T06:11:18.968Z,-0.60
2023-03-07T06:13:46.253Z,-0.60
2023-03-07T06:16:13.754Z,-0.60
2023-03-07T06:18:42.178Z,-0.50
2023-03-07T06:21:10.873Z,-0.50
2023-03-07T06:23:43.028Z,-0.50
2023-03-07T06:26:13.716Z,-0.60
2023-03-07T06:28:43.336Z,-0.60
2023-03-07T06:31:15.013Z,-0.60
2023-03-07T06:33:43.430Z,-0.70
2023-03-07T06:36:14.964Z,-0.70
2023-03-07T06:38:44.928Z,-0.70
2023-03-07T06:41:12.770Z,-0.70
2023-03-07T06:43:40.465Z,-0.70
2023-03-07T06:46:08.066Z,-0.70
2023-03-07T06:48:39.201Z,-0.70
2023-03-07T06:51:10.613Z,-0.70
2023-03-07T06:53:41.307Z,-0.70
2023-03-07T06:56:09.395Z,-0.70
2023-03-07T06:58:38.062Z,-0.70
2023-03-07T07:01:05.740Z,-0.80
2023-03-07T07:03:35.306Z,-0.90
2023-03-07T07:06:03.766Z,-0.90
2023-03-07T07:08:31.549Z,-0.90
2023-03-07T07:10:59.683Z,-0.90
2023-03-07T07:13:28.009Z,-0.90
2023-03-07T07:15:55.258Z,-0.90
2023-03-07T07:18:24.905Z,-0.90
2023-03-07T07:20:55.621Z,-0.90
2023-03-07T07:23:23.811Z,-0.90
2023-03-07T07:30:11.112Z,-0.90
2023-03-07T07:32:38.738Z,-0.90
2023-03-07T07:35:07.014Z,-0.90
2023-03-07T07:37:35.216Z,-0.90
2023-03-07T07:40:02.457Z,-0.90
2023-03-07T07:42:32.110Z,-0.90
2023-03-07T07:45:17.007Z,-0.80
2023-03-07T07:47:44.730Z,-0.90
2023-03-07T07:50:14.249Z,-0.80
2023-03-07T07:52:42.229Z,-0.80
2023-03-07T07:55:10.601Z,-0.80
2023-03-07T07:57:37.942Z,-0.70
2023-03-07T08:00:05.768Z,-0.70
2023-03-07T08:02:40.113Z,-0.70
2023-03-07T08:05:10.431Z,-0.60
2023-03-07T08:07:37.673Z,-0.60
2023-03-07T08:10:05.852Z,-0.60
2023-03-07T08:12:33.130Z,-0.60
2023-03-07T08:15:00.252Z,-0.60
2023-03-07T08:17:29.277Z,-0.60
2023-03-07T08:20:01.742Z,-0.70
2023-03-07T08:22:30.241Z,-0.70
2023-03-07T08:24:57.344Z,-0.60
2023-03-07T08:27:24.607Z,-0.60
2023-03-07T08:29:51.913Z,-0.60
2023-03-07T08:32:19.077Z,-0.60
2023-03-07T08:34:46.347Z,-0.50
2023-03-07T08:37:13.536Z,-0.50
2023-03-07T08:39:40.767Z,-0.40
2023-03-07T08:42:08.095Z,-0.40
2023-03-07T08:44:35.248Z,-0.40
2023-03-07T08:47:02.496Z,-0.40
2023-03-07T08:49:29.832Z,-0.30
2023-03-07T08:51:57.316Z,-0.30
2023-03-07T08:54:24.527Z,-0.30
2023-03-07T08:56:51.678Z,-0.30
2023-03-07T08:59:18.765Z,-0.30
2023-03-07T09:01:45.986Z,-0.20
2023-03-07T09:04:13.250Z,-0.20
2023-03-07T09:06:40.528Z,-0.20
2023-03-07T09:09:07.645Z,-0.10
2023-03-07T09:11:34.780Z,-0.10
2023-03-07T09:14:01.869Z,0.00
2023-03-07T09:16:29.179Z,0.00
2023-03-07T09:18:56.309Z,0.10
2023-03-07T09:21:23.778Z,0.20
2023-03-07T09:23:51.063Z,0.20
2023-03-07T09:26:18.291Z,0.30
2023-03-07T09:28:45.620Z,0.30
2023-03-07T09:31:15.194Z,0.40
2023-03-07T09:33:44.728Z,0.40
2023-03-07T09:36:14.309Z,0.50
2023-03-07T09:38:41.473Z,0.40
2023-03-07T09:41:26.848Z,0.50
2023-03-07T09:44:24.146Z,0.60
2023-03-07T09:47:18.474Z,0.50
2023-03-07T09:49:50.765Z,0.50
2023-03-07T09:52:25.420Z,0.50
2023-03-07T09:55:00.234Z,0.40
2023-03-07T09:57:32.976Z,0.50
2023-03-07T10:00:40.692Z,0.50
2023-03-07T10:03:13.674Z,0.50
2023-03-07T10:06:27.710Z,0.60
2023-03-07T10:08:55.680Z,0.60
2023-03-07T10:11:50.655Z,0.60
2023-03-07T10:14:42.628Z,0.50
2023-03-07T10:17:21.933Z,0.60
2023-03-07T10:19:56.904Z,0.40
2023-03-07T10:22:48.694Z,0.40
2023-03-07T10:25:26.044Z,0.50
2023-03-07T10:28:01.206Z,0.50
2023-03-07T10:30:32.188Z,0.50
2023-03-07T10:33:01.383Z,0.50
2023-03-07T10:35:58.109Z,0.40
2023-03-07T10:38:45.446Z,0.40
2023-03-07T10:41:21.033Z,0.40
2023-03-07T10:43:50.844Z,0.40
2023-03-07T10:46:27.865Z,0.40
2023-03-07T10:49:10.677Z,0.40
2023-03-07T10:51:52.043Z,0.30
2023-03-07T10:54:23.076Z,0.40
2023-03-07T10:57:17.646Z,0.40
2023-03-07T10:59:50.188Z,0.40
2023-03-07T11:02:44.769Z,0.50
2023-03-07T11:05:33.345Z,0.50
2023-03-07T11:08:20.023Z,0.50
2023-03-07T11:10:47.424Z,0.60
2023-03-07T11:13:16.462Z,0.60
2023-03-07T11:15:45.549Z,0.70
2023-03-07T11:18:30.355Z,0.70
2023-03-07T11:20:59.013Z,0.80
2023-03-07T11:23:31.595Z,0.90
2023-03-07T11:26:16.418Z,1.00
2023-03-07T11:28:43.761Z,1.00
2023-03-07T11:31:29.121Z,1.10
2023-03-07T11:34:08.909Z,1.20
2023-03-07T11:36:38.510Z,1.00
2023-03-07T11:39:17.594Z,1.00
2023-03-07T11:41:53.843Z,0.80
2023-03-07T11:44:33.073Z,0.70
2023-03-07T11:47:24.753Z,0.60
2023-03-07T11:50:12.079Z,0.60
2023-03-07T11:52:54.855Z,0.40
2023-03-07T11:55:26.234Z,0.50
2023-03-07T11:58:11.771Z,0.40
2023-03-07T12:01:00.073Z,0.40
2023-03-07T12:04:15.635Z,0.50
2023-03-07T12:07:13.392Z,0.50
2023-03-07T12:09:58.869Z,0.50
2023-03-07T12:13:03.630Z,0.60
2023-03-07T12:15:44.450Z,0.60
2023-03-07T12:18:29.305Z,0.60
2023-03-07T12:21:32.583Z,0.60
2023-03-07T12:24:26.577Z,0.60
2023-03-07T12:27:02.287Z,0.70
2023-03-07T12:29:41.943Z,0.60
2023-03-07T12:32:29.530Z,0.70
2023-03-07T12:35:03.338Z,0.80
2023-03-07T12:37:39.913Z,0.90
2023-03-07T12:40:42.477Z,1.00
2023-03-07T12:43:21.486Z,1.00
2023-03-07T12:46:14.207Z,1.10
2023-03-07T12:48:51.048Z,1.00
2023-03-07T12:51:30.723Z,1.00
2023-03-07T12:54:09.349Z,1.00
2023-03-07T12:57:06.914Z,1.00
2023-03-07T12:59:37.259Z,1.00
2023-03-07T13:02:10.578Z,1.00
2023-03-07T13:04:39.630Z,1.00
2023-03-07T13:07:12.473Z,1.10
2023-03-07T13:09:48.263Z,1.10
2023-03-07T13:12:23.827Z,1.20
2023-03-07T13:14:54.518Z,1.20
2023-03-07T13:17:44.949Z,1.30
2023-03-07T13:20:36.335Z,1.30
2023-03-07T13:23:32.908Z,1.40
2023-03-07T13:26:10.755Z,1.50
2023-03-07T13:28:46.583Z,1.60
2023-03-07T13:31:16.779Z,1.60
2023-03-07T13:33:44.216Z,1.60
2023-03-07T13:36:39.632Z,1.50
2023-03-07T13:39:35.981Z,1.40
2023-03-07T13:42:03.289Z,1.20
2023-03-07T13:44:41.299Z,0.90
2023-03-07T13:47:43.531Z,0.60
2023-03-07T13:50:35.782Z,0.50
2023-03-07T13:53:18.878Z,0.50
2023-03-07T13:56:25.094Z,0.50
2023-03-07T13:59:02.602Z,0.50
2023-03-07T14:01:33.073Z,0.50
2023-03-07T14:04:10.451Z,0.40
2023-03-07T14:07:00.642Z,0.40
2023-03-07T14:09:31.537Z,0.50
2023-03-07T14:12:34.425Z,0.50
2023-03-07T14:15:20.325Z,0.60
2023-03-07T14:17:57.606Z,0.70
2023-03-07T14:20:49.660Z,0.80
2023-03-07T14:23:33.698Z,0.90
2023-03-07T14:26:19.442Z,1.00
2023-03-07T14:28:57.215Z,1.00
2023-03-07T14:31:37.465Z,1.10
2023-03-07T14:34:30.930Z,1.10
2023-03-07T14:37:02.542Z,1.10
2023-03-07T14:40:10.872Z,1.20
2023-03-07T14:42:54.421Z,1.30
2023-03-07T14:45:35.248Z,1.30
2023-03-07T14:48:14.566Z,1.30
2023-03-07T14:50:47.149Z,1.30
2023-03-07T14:53:26.181Z,1.40
2023-03-07T14:55:55.314Z,1.40
2023-03-07T14:58:34.881Z,1.40
2023-03-07T15:01:05.703Z,1.50
2023-03-07T15:03:33.537Z,1.50
2023-03-07T15:06:03.003Z,1.60
2023-03-07T15:08:34.955Z,1.60
2023-03-07T15:11:07.876Z,1.60
2023-03-07T15:13:48.974Z,1.60
2023-03-07T15:16:25.399Z,1.60
2023-03-07T15:19:24.618Z,1.60
2023-03-07T15:21:56.300Z,1.60
2023-03-07T15:24:29.906Z,1.70
2023-03-07T15:26:59.517Z,1.70
2023-03-07T15:29:29.954Z,1.60
2023-03-07T15:32:08.966Z,1.60
2023-03-07T15:34:39.330Z,1.50
2023-03-07T15:37:28.098Z,1.50
2023-03-07T15:40:22.504Z,1.50
2023-03-07T15:43:17.591Z,1.60
2023-03-07T15:45:58.047Z,1.50
2023-03-07T15:48:27.873Z,1.50
2023-03-07T15:50:57.823Z,1.50
2023-03-07T15:53:39.569Z,1.50
2023-03-07T15:56:21.540Z,1.50
2023-03-07T15:58:49.058Z,1.40
2023-03-07T16:01:27.111Z,1.40
2023-03-07T16:04:04.122Z,1.40
2023-03-07T16:06:45.264Z,1.40
2023-03-07T16:09:17.559Z,1.30
2023-03-07T16:11:46.152Z,1.30
2023-03-07T16:14:31.209Z,1.20
2023-03-07T16:17:00.979Z,1.30
2023-03-07T16:19:28.940Z,1.30
2023-03-07T16:21:56.221Z,1.30
2023-03-07T16:24:23.514Z,1.30
2023-03-07T16:26:50.973Z,1.30
2023-03-07T16:29:22.582Z,1.30
2023-03-07T16:31:50.021Z,1.30
2023-03-07T16:34:22.953Z,1.30
2023-03-07T16:36:50.294Z,1.30
2023-03-07T16:39:18.594Z,1.20
2023-03-07T16:41:50.186Z,1.20
2023-03-07T16:44:19.839Z,1.10
2023-03-07T16:47:05.819Z,1.10
2023-03-07T16:49:33.043Z,1.10
2023-03-07T16:52:06.100Z,1.10
2023-03-07T16:54:34.165Z,1.10
2023-03-07T16:57:14.573Z,1.10
2023-03-07T16:59:47.256Z,1.00
2023-03-07T17:02:17.932Z,1.00
2023-03-07T17:04:45.595Z,1.00
2023-03-07T17:07:22.073Z,1.10
2023-03-07T17:09:50.313Z,1.10
2023-03-07T17:12:20.814Z,1.20
2023-03-07T17:14:48.115Z,1.30
2023-03-07T17:17:29.238Z,1.30
2023-03-07T17:19:56.472Z,1.20
2023-03-07T17:22:23.818Z,1.10
2023-03-07T17:24:51.187Z,1.10
2023-03-07T17:27:19.495Z,1.00
2023-03-07T17:29:53.022Z,0.80
2023-03-07T17:32:21.007Z,0.80
2023-03-07T17:34:48.425Z,0.70
2023-03-07T17:37:15.820Z,0.70
2023-03-07T17:39:43.797Z,0.60
2023-03-07T17:42:11.920Z,0.60
2023-03-07T17:44:39.540Z,0.50
2023-03-07T17:47:06.865Z,0.40
2023-03-07T17:49:36.110Z,0.40
2023-03-07T17:52:05.059Z,0.40
2023-03-07T17:54:32.970Z,0.30
2023-03-07T17:57:00.265Z,0.30
2023-03-07T17:59:27.493Z,0.30
2023-03-07T18:01:55.069Z,0.30
2023-03-07T18:04:22.376Z,0.30
2023-03-07T18:06:49.693Z,0.30
2023-03-07T18:09:18.886Z,0.20
2023-03-07T18:11:46.102Z,0.20
2023-03-07T18:14:13.474Z,0.20
2023-03-07T18:16:40.636Z,0.20
2023-03-07T18:19:14.247Z,0.10
2023-03-07T18:21:45.864Z,0.10
2023-03-07T18:24:21.520Z,0.00
2023-03-07T18:26:52.078Z,0.10
2023-03-07T18:29:20.317Z,0.10
2023-03-07T18:31:48.015Z,0.10
2023-03-07T18:34:15.779Z,0.10
2023-03-07T18:36:44.036Z,0.10
2023-03-07T18:39:11.560Z,0.10
2023-03-07T18:41:39.308Z,0.10
2023-03-07T18:44:06.617Z,0.10
2023-03-07T18:46:34.005Z,0.10
2023-03-07T18:49:02.303Z,0.00
2023-03-07T18:51:30.281Z,0.00
2023-03-07T18:53:59.776Z,-0.10
2023-03-07T18:56:27.714Z,-0.10
2023-03-07T18:58:57.023Z,-0.10
2023-03-07T19:01:26.146Z,-0.20
2023-03-07T19:03:55.365Z,-0.20
2023-03-07T19:06:24.766Z,-0.20
2023-03-07T19:08:52.546Z,-0.20
2023-03-07T19:11:20.801Z,-0.20
2023-03-07T19:13:49.692Z,-0.20
2023-03-07T19:16:23.684Z,-0.30
2023-03-07T19:18:52.216Z,-0.30
2023-03-07T19:21:22.472Z,-0.30
2023-03-07T19:23:51.003Z,-0.30
2023-03-07T19:26:19.663Z,-0.40
2023-03-07T19:28:48.282Z,-0.40
2023-03-07T19:31:30.041Z,-0.40
2023-03-07T19:33:58.232Z,-0.40
2023-03-07T19:36:27.894Z,-0.40
2023-03-07T19:38:57.810Z,-0.50
2023-03-07T19:41:27.126Z,-0.50
2023-03-07T19:43:56.556Z,-0.50
2023-03-07T19:46:24.259Z,-0.50
2023-03-07T19:48:51.619Z,-0.50
2023-03-07T19:51:24.044Z,-0.50
2023-03-07T19:53:57.627Z,-0.60
2023-03-07T19:56:30.171Z,-0.50
2023-03-07T19:58:58.346Z,-0.50
2023-03-07T20:01:26.757Z,-0.50
2023-03-07T20:03:54.084Z,-0.50
2023-03-07T20:27:50.615Z,-0.70
2023-03-07T20:30:18.636Z,-0.70
2023-03-07T20:32:45.889Z,-0.70
2023-03-07T20:35:13.638Z,-0.70
2023-03-07T20:37:40.784Z,-0.70
2023-03-07T20:40:09.008Z,-0.70
2023-03-07T20:42:36.207Z,-0.70
2023-03-07T20:45:03.807Z,-0.70
2023-03-07T20:47:32.598Z,-0.70
2023-03-07T20:49:59.699Z,-0.70
2023-03-07T20:52:26.896Z,-0.70
2023-03-07T20:54:54.092Z,-0.80
2023-03-07T20:57:21.277Z,-0.80
2023-03-07T20:59:49.478Z,-0.80
2023-03-07T21:02:16.790Z,-0.80
2023-03-07T21:04:43.987Z,-0.80
2023-03-07T21:07:11.238Z,-0.80
2023-03-07T21:09:38.477Z,-0.90
2023-03-07T21:12:08.513Z,-0.90
2023-03-07T21:14:35.813Z,-0.90
2023-03-07T21:17:03.890Z,-0.90
2023-03-07T21:19:31.154Z,-0.90
2023-03-07T21:21:59.164Z,-0.90
2023-03-07T21:24:26.340Z,-0.90
2023-03-07T21:26:53.528Z,-0.90
2023-03-07T21:29:20.946Z,-0.90
2023-03-07T21:31:48.747Z,-1.00
2023-03-07T21:34:15.953Z,-1.00
2023-03-07T21:36:43.171Z,-1.00
2023-03-07T21:39:12.048Z,-1.00
2023-03-07T21:41:39.337Z,-1.00
2023-03-07T21:44:06.671Z,-1.10
2023-03-07T21:46:33.901Z,-1.10
2023-03-07T21:49:01.705Z,-1.10
2023-03-07T21:51:29.081Z,-1.10
2023-03-07T21:53:56.382Z,-1.20
2023-03-07T21:56:24.050Z,-1.20
2023-03-07T21:58:52.230Z,-1.10
2023-03-07T22:01:25.301Z,-1.10
2023-03-07T22:03:54.420Z,-1.10
2023-03-07T22:06:22.259Z,-1.00
2023-03-07T22:08:49.620Z,-1.00
2023-03-07T22:11:16.840Z,-1.00
2023-03-07T22:13:44.135Z,-0.90
2023-03-07T22:16:16.801Z,-0.90
2023-03-07T22:18:44.252Z,-1.00
2023-03-07T22:21:14.216Z,-1.10
2023-03-07T22:23:42.432Z,-1.20
2023-03-07T22:26:11.934Z,-1.20
2023-03-07T22:28:41.147Z,-1.30
2023-03-07T22:31:12.926Z,-1.30
2023-03-07T22:33:41.148Z,-1.30
2023-03-07T22:36:11.900Z,-1.30
2023-03-07T22:38:44.454Z,-1.20
2023-03-07T22:41:14.706Z,-1.10
2023-03-07T22:43:42.572Z,-1.10
2023-03-07T22:46:10.421Z,-1.10
2023-03-07T22:48:38.254Z,-1.00
2023-03-07T22:51:10.019Z,-1.10
2023-03-07T22:53:37.416Z,-1.10
2023-03-07T22:56:18.169Z,-1.20
2023-03-07T22:58:45.826Z,-1.20
2023-03-07T23:01:20.538Z,-1.20
2023-03-07T23:03:48.927Z,-1.30
2023-03-07T23:06:16.995Z,-1.40
2023-03-07T23:08:45.762Z,-1.40
2023-03-07T23:11:13.792Z,-1.50
2023-03-07T23:13:41.582Z,-1.60
2023-03-07T23:16:12.513Z,-1.60
2023-03-07T23:18:41.293Z,-1.70
2023-03-07T23:21:11.673Z,-1.80
2023-03-07T23:23:38.939Z,-1.80
2023-03-07T23:26:06.962Z,-1.90
2023-03-07T23:28:35.050Z,-1.90
2023-03-07T23:31:02.381Z,-1.90
2023-03-07T23:33:29.662Z,-1.90
2023-03-07T23:36:00.496Z,-2.00
2023-03-07T23:38:27.865Z,-2.00
2023-03-07T23:40:54.980Z,-2.00
2023-03-07T23:43:22.939Z,-2.00
2023-03-07T23:45:50.385Z,-2.00
2023-03-07T23:48:17.550Z,-1.90
2023-03-07T23:50:47.712Z,-1.90
2023-03-07T23:53:15.167Z,-1.90
2023-03-07T23:55:42.558Z,-1.90
2023-03-07T23:58:10.223Z,-1.90
